LFLY/LYN METAR and TAF weather

Enter ICAO airport designator
Station Type Date Time Source
LFLY METAR 2022/01/23 12:30 UTC NOAA

LFLY 231230Z AUTO 01005KT 340V050 9999 OVC009 02/M01 Q1032 BECMG BKN013


Station Type Date Time Source
LFLY Decoded METAR 2022/01/23 12:30 UTC NOAA

Lyon / Bron, France (LFLY) 45-43N 004-57E 201M
Jan 23, 2022 - 07:30 AM EST / 2022.01.23 1230 UTC
Wind: from the N (010 degrees) at 6 MPH (5 KT) (direction variable):0
Visibility: greater than 7 mile(s):0
Sky conditions: overcast
Temperature: 35 F (2 C)
Windchill: 30 F (-1 C):1
Dew Point: 30 F (-1 C)
Relative Humidity: 80%
Pressure (altimeter): 30.47 in. Hg (1032 hPa)
ob: LFLY 231230Z AUTO 01005KT 340V050 9999 OVC009 02/M01 Q1032 BECMG BKN013
cycle: 12

Station Type Date Time Source
LFLY TAF 2022/01/23 12:21 UTC NOAA

TAF LFLY 231100Z 2312/2412 35006KT 9999 OVC010
BECMG 2312/2314 BKN013
TEMPO 2314/2318 SCT020
BECMG 2318/2321 4000 BR OVC003 PROB30
TEMPO 2400/2409 0400 FZFG VV///

Example: see airport list